Time;durP1;ratioP1;P1;durP2;ratioP2;P2;SDS_P1;SDS_P2;PMS_P1;PMS_P2;Temp;Humidity;BMP_temperature;BMP_pressure;BME280_temperature;BME280_humidity;BME280_pressure;Samples;Min_cycle;Max_cycle;Signal;HPM_P1;HPM_P2
2021/12/08 00:01:05;;;;;;;10.32;5.28;;;;;;;;;;5061409;28;20088;-70
2021/12/08 00:03:31;;;;;;;9.50;4.60;;;;;;;;;;5058602;28;20141;-69
2021/12/08 00:06:01;;;;;;;15.32;5.60;;;;;;;;;;5052085;28;20057;-69
2021/12/08 00:08:29;;;;;;;11.50;5.50;;;;;;;;;;5043374;28;20077;-71
2021/12/08 00:13:25;;;;;;;9.65;4.93;;;;;;;;;;5058511;28;20050;-71
2021/12/08 00:15:53;;;;;;;5.57;4.60;;;;;;;;;;5062740;28;20254;-70
2021/12/08 00:18:24;;;;;;;6.70;4.82;;;;;;;;;;5060933;28;20057;-71
2021/12/08 00:20:53;;;;;;;8.27;4.35;;;;;;;;;;5053523;28;20504;-71
2021/12/08 00:23:20;;;;;;;10.23;4.70;;;;;;;;;;5052390;28;20057;-71
2021/12/08 00:25:46;;;;;;;11.23;4.72;;;;;;;;;;5055823;28;20515;-71
2021/12/08 00:28:13;;;;;;;8.38;4.10;;;;;;;;;;5073705;28;20148;-71
2021/12/08 00:30:41;;;;;;;10.77;4.30;;;;;;;;;;5062246;28;20046;-71
2021/12/08 00:33:07;;;;;;;11.13;4.57;;;;;;;;;;5069655;28;20180;-72
2021/12/08 00:35:35;;;;;;;8.85;3.95;;;;;;;;;;5055331;28;20049;-69
2021/12/08 00:38:01;;;;;;;7.90;3.63;;;;;;;;;;5051642;28;20053;-69
2021/12/08 00:40:28;;;;;;;11.10;3.88;;;;;;;;;;5056174;28;20053;-70
2021/12/08 00:42:54;;;;;;;7.80;4.22;;;;;;;;;;5053047;28;20482;-72
2021/12/08 00:45:21;;;;;;;8.48;4.35;;;;;;;;;;5065135;28;20140;-70
2021/12/08 00:47:49;;;;;;;7.20;4.40;;;;;;;;;;5072631;28;20111;-70
2021/12/08 00:50:21;;;;;;;7.57;4.30;;;;;;;;;;5066235;28;20063;-71
2021/12/08 00:52:51;;;;;;;8.00;3.92;;;;;;;;;;5061856;28;20458;-71
2021/12/08 00:55:19;;;;;;;9.73;4.55;;;;;;;;;;5059757;28;20432;-72
2021/12/08 00:57:46;;;;;;;6.57;4.13;;;;;;;;;;5059721;28;20063;-71
2021/12/08 01:00:15;;;;;;;9.27;4.60;;;;;;;;;;5051767;28;20501;-70
2021/12/08 01:02:41;;;;;;;9.38;4.97;;;;;;;;;;5064154;28;20580;-71
2021/12/08 01:05:12;;;;;;;10.65;4.68;;;;;;;;;;5064050;28;20139;-72
2021/12/08 01:07:39;;;;;;;5.78;4.50;;;;;;;;;;5064841;28;20053;-69
2021/12/08 01:10:06;;;;;;;8.65;4.65;;;;;;;;;;5072520;28;20055;-70
2021/12/08 01:12:54;;;;;;;11.65;5.28;;;;;;;;;;5059650;28;20056;-72
2021/12/08 01:15:22;;;;;;;7.60;4.63;;;;;;;;;;5058229;28;20089;-71
2021/12/08 01:17:48;;;;;;;8.20;4.75;;;;;;;;;;5067450;28;20049;-71
2021/12/08 01:20:16;;;;;;;7.40;4.90;;;;;;;;;;5066406;28;20050;-70
2021/12/08 01:22:42;;;;;;;7.22;4.90;;;;;;;;;;5064903;28;20049;-69
2021/12/08 01:25:09;;;;;;;7.80;5.18;;;;;;;;;;5071098;28;20111;-69
2021/12/08 01:27:35;;;;;;;8.75;5.35;;;;;;;;;;5055574;28;20056;-70
2021/12/08 01:30:04;;;;;;;8.15;5.30;;;;;;;;;;5052019;28;20516;-70
2021/12/08 01:32:30;;;;;;;8.65;5.85;;;;;;;;;;5051687;28;20063;-71
2021/12/08 01:34:57;;;;;;;10.43;5.55;;;;;;;;;;5064576;28;20131;-70
2021/12/08 01:37:24;;;;;;;8.20;5.85;;;;;;;;;;5067018;28;20052;-69
2021/12/08 01:39:50;;;;;;;8.43;5.82;;;;;;;;;;5071211;28;20075;-69
2021/12/08 01:42:25;;;;;;;8.70;5.95;;;;;;;;;;5062367;28;20064;-69
2021/12/08 01:47:36;;;;;;;13.75;6.35;;;;;;;;;;5063614;28;20444;-72
2021/12/08 01:50:04;;;;;;;10.35;6.65;;;;;;;;;;5072386;28;20049;-71
2021/12/08 01:52:30;;;;;;;11.00;6.53;;;;;;;;;;5063042;28;20080;-71
2021/12/08 01:54:57;;;;;;;11.88;6.00;;;;;;;;;;5068584;28;20099;-71
2021/12/08 01:57:23;;;;;;;9.95;5.78;;;;;;;;;;5069254;28;20509;-70
2021/12/08 01:59:49;;;;;;;6.47;5.82;;;;;;;;;;5058947;28;20057;-71
2021/12/08 02:02:16;;;;;;;10.10;6.40;;;;;;;;;;5068217;28;20059;-71
2021/12/08 02:04:42;;;;;;;13.32;6.10;;;;;;;;;;5047584;28;20093;-70
2021/12/08 02:07:09;;;;;;;11.23;6.72;;;;;;;;;;5065969;28;20053;-71
2021/12/08 02:09:35;;;;;;;8.05;6.53;;;;;;;;;;5071020;28;20049;-71
2021/12/08 02:12:02;;;;;;;12.35;6.35;;;;;;;;;;5072710;28;20053;-70
2021/12/08 02:14:28;;;;;;;11.88;6.78;;;;;;;;;;5059382;28;20136;-69
2021/12/08 02:16:55;;;;;;;11.10;6.38;;;;;;;;;;5056209;28;20045;-69
2021/12/08 02:19:22;;;;;;;8.65;6.00;;;;;;;;;;5056134;28;20056;-71
2021/12/08 02:21:52;;;;;;;10.10;6.45;;;;;;;;;;5071116;28;20067;-71
2021/12/08 02:24:19;;;;;;;11.07;6.18;;;;;;;;;;5072222;28;20053;-71
2021/12/08 02:26:47;;;;;;;9.02;6.72;;;;;;;;;;5070320;28;20497;-71
2021/12/08 02:29:18;;;;;;;8.75;6.05;;;;;;;;;;5067066;28;20171;-70
2021/12/08 02:32:01;;;;;;;9.98;5.78;;;;;;;;;;5054251;28;20063;-71
2021/12/08 02:48:27;;;;;;;8.75;5.35;;;;;;;;;;5031230;28;20145;-69
2021/12/08 02:50:53;;;;;;;9.60;5.43;;;;;;;;;;5047514;28;20046;-70
2021/12/08 02:53:20;;;;;;;9.77;5.40;;;;;;;;;;5039649;28;20059;-69
2021/12/08 02:55:46;;;;;;;11.80;5.07;;;;;;;;;;5031857;28;20054;-70
2021/12/08 02:58:13;;;;;;;5.68;4.32;;;;;;;;;;5038468;28;20081;-69
2021/12/08 03:00:42;;;;;;;11.25;5.40;;;;;;;;;;5031711;28;20516;-71
2021/12/08 03:03:08;;;;;;;13.77;4.78;;;;;;;;;;5031424;28;20049;-71
2021/12/08 03:05:35;;;;;;;7.28;4.65;;;;;;;;;;5030835;28;20050;-70
2021/12/08 03:08:02;;;;;;;12.48;5.00;;;;;;;;;;5049300;28;20164;-69
2021/12/08 03:10:30;;;;;;;9.45;5.05;;;;;;;;;;5042290;28;20081;-71
2021/12/08 03:12:56;;;;;;;9.63;4.43;;;;;;;;;;5031542;28;20092;-70
2021/12/08 03:15:22;;;;;;;10.85;4.43;;;;;;;;;;5031421;28;20140;-69
2021/12/08 03:17:49;;;;;;;9.02;4.32;;;;;;;;;;5030016;28;20422;-69
2021/12/08 03:20:19;;;;;;;9.38;4.78;;;;;;;;;;5037120;28;20058;-71
2021/12/08 03:22:48;;;;;;;12.02;5.22;;;;;;;;;;5032122;28;20132;-70
2021/12/08 03:25:18;;;;;;;13.77;4.35;;;;;;;;;;5028609;28;20068;-70
2021/12/08 03:28:02;;;;;;;9.48;4.60;;;;;;;;;;5043189;28;20141;-71
2021/12/08 03:30:35;;;;;;;10.25;4.20;;;;;;;;;;5018351;28;20050;-69
2021/12/08 03:33:02;;;;;;;10.13;3.95;;;;;;;;;;5032882;28;20060;-70
2021/12/08 03:35:28;;;;;;;8.93;4.30;;;;;;;;;;5042556;28;20053;-69
2021/12/08 03:37:55;;;;;;;9.20;4.70;;;;;;;;;;5033503;28;20050;-70
2021/12/08 03:40:23;;;;;;;10.18;4.13;;;;;;;;;;5037020;28;20203;-68
2021/12/08 03:42:50;;;;;;;11.52;4.97;;;;;;;;;;5046794;28;20152;-71
2021/12/08 03:45:19;;;;;;;10.60;4.50;;;;;;;;;;5058712;28;20140;-71
2021/12/08 03:47:47;;;;;;;10.02;4.00;;;;;;;;;;5054369;28;20107;-70
2021/12/08 03:50:15;;;;;;;5.72;3.78;;;;;;;;;;5054963;28;20088;-72
2021/12/08 03:52:41;;;;;;;9.70;4.20;;;;;;;;;;5056603;28;20057;-70
2021/12/08 03:55:09;;;;;;;13.43;4.00;;;;;;;;;;5070934;28;20055;-70
2021/12/08 03:57:35;;;;;;;9.77;4.00;;;;;;;;;;5073048;28;20093;-70
2021/12/08 04:00:04;;;;;;;9.15;4.20;;;;;;;;;;5064167;28;20049;-70
2021/12/08 04:02:30;;;;;;;6.90;3.65;;;;;;;;;;5053052;28;20049;-72
2021/12/08 04:04:56;;;;;;;12.57;3.92;;;;;;;;;;5061973;28;20587;-71
2021/12/08 04:07:25;;;;;;;6.03;3.42;;;;;;;;;;5054628;28;20103;-71
2021/12/08 04:09:51;;;;;;;8.13;4.35;;;;;;;;;;5062257;28;20455;-71
2021/12/08 04:12:19;;;;;;;8.65;3.67;;;;;;;;;;5056687;28;20133;-72
2021/12/08 04:14:48;;;;;;;8.98;3.90;;;;;;;;;;5062986;28;20056;-72
2021/12/08 04:17:17;;;;;;;10.20;3.72;;;;;;;;;;5060821;28;20049;-71
2021/12/08 04:19:44;;;;;;;8.80;3.70;;;;;;;;;;5068990;28;20052;-68
2021/12/08 04:22:15;;;;;;;7.20;3.67;;;;;;;;;;5067054;28;20059;-71
2021/12/08 04:24:43;;;;;;;11.00;4.55;;;;;;;;;;5054969;28;20527;-71
2021/12/08 04:27:13;;;;;;;11.95;3.42;;;;;;;;;;5059174;28;20059;-72
2021/12/08 04:29:41;;;;;;;9.23;3.63;;;;;;;;;;5057253;28;20057;-71
2021/12/08 04:32:08;;;;;;;6.70;3.30;;;;;;;;;;5074511;28;20052;-72
2021/12/08 04:34:38;;;;;;;5.10;2.60;;;;;;;;;;5060752;28;20049;-71
2021/12/08 04:37:10;;;;;;;5.45;2.97;;;;;;;;;;5066689;28;20061;-72
2021/12/08 04:39:50;;;;;;;8.18;2.88;;;;;;;;;;5057961;28;20057;-71
2021/12/08 04:42:25;;;;;;;10.38;3.05;;;;;;;;;;5068254;28;20061;-70
2021/12/08 04:44:58;;;;;;;5.77;2.70;;;;;;;;;;5058047;28;20049;-70
2021/12/08 05:01:44;;;;;;;6.00;2.50;;;;;;;;;;5066063;28;20053;-70
2021/12/08 05:04:30;;;;;;;9.40;3.03;;;;;;;;;;5051261;28;20060;-71
2021/12/08 05:09:44;;;;;;;5.43;2.63;;;;;;;;;;5047386;28;20053;-71
2021/12/08 05:12:16;;;;;;;8.07;2.58;;;;;;;;;;5070558;28;20053;-71
2021/12/08 05:14:44;;;;;;;11.65;2.60;;;;;;;;;;5059703;28;20130;-71
2021/12/08 05:17:13;;;;;;;6.18;2.95;;;;;;;;;;5056682;28;20056;-72
2021/12/08 05:19:40;;;;;;;8.50;2.80;;;;;;;;;;5071852;28;20497;-72
2021/12/08 05:22:12;;;;;;;3.33;2.20;;;;;;;;;;5073902;28;20064;-71
2021/12/08 05:24:42;;;;;;;4.82;3.35;;;;;;;;;;5072803;28;20467;-71
2021/12/08 05:27:12;;;;;;;11.95;2.40;;;;;;;;;;5063480;28;20132;-70
2021/12/08 05:29:50;;;;;;;7.22;2.47;;;;;;;;;;5054024;28;20054;-71
2021/12/08 05:32:16;;;;;;;8.30;2.38;;;;;;;;;;5061476;28;20053;-72
2021/12/08 05:34:44;;;;;;;6.68;2.45;;;;;;;;;;5055050;28;20049;-71
2021/12/08 05:37:11;;;;;;;6.93;2.00;;;;;;;;;;5068847;28;20068;-71
2021/12/08 05:39:38;;;;;;;5.30;1.90;;;;;;;;;;5073169;28;20057;-70
2021/12/08 05:42:06;;;;;;;4.40;2.00;;;;;;;;;;5062085;28;20053;-71
2021/12/08 05:44:33;;;;;;;5.90;1.80;;;;;;;;;;5055678;28;20054;-72
2021/12/08 05:47:01;;;;;;;7.03;1.88;;;;;;;;;;5066981;28;20053;-71
2021/12/08 05:49:27;;;;;;;12.13;2.92;;;;;;;;;;5055365;28;20073;-71
2021/12/08 05:51:54;;;;;;;7.15;2.13;;;;;;;;;;5052812;28;20505;-72
2021/12/08 05:54:25;;;;;;;9.00;2.20;;;;;;;;;;5051456;28;20137;-71
2021/12/08 05:56:54;;;;;;;5.63;2.13;;;;;;;;;;5039021;28;20053;-72
2021/12/08 05:59:21;;;;;;;6.43;2.00;;;;;;;;;;5053191;28;20088;-72
2021/12/08 06:01:51;;;;;;;5.38;2.83;;;;;;;;;;5053090;28;20128;-72
2021/12/08 06:04:19;;;;;;;9.25;2.25;;;;;;;;;;5051715;28;20442;-72
2021/12/08 06:06:47;;;;;;;4.82;1.80;;;;;;;;;;5050093;28;20139;-71
2021/12/08 06:09:14;;;;;;;4.30;2.10;;;;;;;;;;5051357;28;20061;-71
2021/12/08 06:11:41;;;;;;;7.07;1.80;;;;;;;;;;5039502;28;20077;-72
2021/12/08 06:14:08;;;;;;;8.63;2.08;;;;;;;;;;5051552;28;20132;-71
2021/12/08 06:16:36;;;;;;;6.10;2.20;;;;;;;;;;5034068;28;20057;-72
2021/12/08 06:19:03;;;;;;;5.25;1.88;;;;;;;;;;5050887;28;20049;-71
2021/12/08 06:21:30;;;;;;;7.63;2.20;;;;;;;;;;5043076;28;20512;-72
2021/12/08 06:23:57;;;;;;;8.23;1.73;;;;;;;;;;5038343;28;20132;-71
2021/12/08 06:26:26;;;;;;;3.33;1.50;;;;;;;;;;5050643;28;20068;-69
2021/12/08 06:28:57;;;;;;;4.97;1.77;;;;;;;;;;5047021;28;20058;-70
2021/12/08 06:31:24;;;;;;;4.05;1.23;;;;;;;;;;5052141;28;20523;-72
2021/12/08 06:33:51;;;;;;;5.32;1.63;;;;;;;;;;5052772;28;20049;-71
2021/12/08 06:36:22;;;;;;;7.45;1.60;;;;;;;;;;5051610;28;20053;-72
2021/12/08 06:38:49;;;;;;;7.00;1.35;;;;;;;;;;5057769;28;20053;-72
2021/12/08 06:41:17;;;;;;;5.78;1.33;;;;;;;;;;5053328;28;20096;-71
2021/12/08 06:43:47;;;;;;;8.13;1.20;;;;;;;;;;5040977;28;20053;-70
2021/12/08 06:46:13;;;;;;;8.35;1.42;;;;;;;;;;5046986;28;20136;-71
2021/12/08 06:48:42;;;;;;;8.50;1.48;;;;;;;;;;5049626;28;20049;-69
2021/12/08 06:51:19;;;;;;;5.40;1.27;;;;;;;;;;5049398;28;20493;-70
2021/12/08 06:53:46;;;;;;;9.07;1.45;;;;;;;;;;5051317;28;20060;-70
2021/12/08 06:56:22;;;;;;;8.50;1.75;;;;;;;;;;5057715;28;20064;-70
2021/12/08 06:58:50;;;;;;;4.15;1.27;;;;;;;;;;5062873;28;20049;-68
2021/12/08 07:01:47;;;;;;;8.80;2.28;;;;;;;;;;5062073;28;20057;-70
2021/12/08 07:09:30;;;;;;;8.85;1.60;;;;;;;;;;5049820;28;20057;-69
2021/12/08 07:11:58;;;;;;;7.22;2.05;;;;;;;;;;5058920;28;20053;-69
2021/12/08 07:14:25;;;;;;;11.82;1.55;;;;;;;;;;5065169;28;20168;-68
2021/12/08 07:16:54;;;;;;;6.93;1.95;;;;;;;;;;5058072;28;20092;-71
2021/12/08 07:19:35;;;;;;;7.82;1.95;;;;;;;;;;5072295;28;20057;-69
2021/12/08 07:22:04;;;;;;;9.10;1.50;;;;;;;;;;5071927;28;20155;-69
2021/12/08 07:24:33;;;;;;;5.32;1.73;;;;;;;;;;5074191;28;20053;-71
2021/12/08 07:27:03;;;;;;;7.53;1.80;;;;;;;;;;5053189;28;20505;-69
2021/12/08 07:29:31;;;;;;;6.30;2.08;;;;;;;;;;5058970;28;20045;-70
2021/12/08 07:32:00;;;;;;;8.32;1.58;;;;;;;;;;5073943;28;20059;-71
2021/12/08 07:34:27;;;;;;;10.95;2.47;;;;;;;;;;5072534;28;20554;-71
2021/12/08 07:36:56;;;;;;;13.50;1.60;;;;;;;;;;5053681;28;20192;-69
2021/12/08 07:39:27;;;;;;;10.05;1.98;;;;;;;;;;5073441;28;20053;-68
2021/12/08 07:41:58;;;;;;;5.97;1.80;;;;;;;;;;5072778;28;20067;-71
2021/12/08 07:44:25;;;;;;;7.03;1.70;;;;;;;;;;5066190;28;20145;-70
2021/12/08 07:47:01;;;;;;;8.57;1.92;;;;;;;;;;5055197;28;20057;-70
2021/12/08 07:49:31;;;;;;;9.15;2.88;;;;;;;;;;5061194;28;20072;-69
2021/12/08 07:52:00;;;;;;;7.03;1.70;;;;;;;;;;5052556;28;20056;-69
2021/12/08 07:54:28;;;;;;;8.35;2.67;;;;;;;;;;5050568;28;20054;-70
2021/12/08 07:56:56;;;;;;;7.82;1.75;;;;;;;;;;5052678;28;20077;-71
2021/12/08 07:59:25;;;;;;;4.53;1.52;;;;;;;;;;5053196;28;20061;-71
2021/12/08 08:01:53;;;;;;;6.78;1.60;;;;;;;;;;5062976;28;20055;-71
2021/12/08 08:04:21;;;;;;;11.73;3.47;;;;;;;;;;5063185;28;20053;-70
2021/12/08 08:06:52;;;;;;;7.80;2.53;;;;;;;;;;5054771;28;20511;-70
2021/12/08 08:09:22;;;;;;;10.13;2.97;;;;;;;;;;5065094;28;20140;-73
2021/12/08 08:11:55;;;;;;;8.63;2.22;;;;;;;;;;5067464;28;20053;-71
2021/12/08 08:14:29;;;;;;;11.40;2.08;;;;;;;;;;5063310;28;20515;-67
2021/12/08 08:16:57;;;;;;;12.10;2.60;;;;;;;;;;5055501;28;20423;-70
2021/12/08 08:19:28;;;;;;;9.73;2.13;;;;;;;;;;5058822;28;20081;-71
2021/12/08 08:22:02;;;;;;;9.02;2.47;;;;;;;;;;5054234;28;20148;-70
2021/12/08 08:24:29;;;;;;;10.73;2.65;;;;;;;;;;5047625;28;20060;-70
2021/12/08 08:26:57;;;;;;;6.60;1.95;;;;;;;;;;5064257;28;20057;-70
2021/12/08 08:29:23;;;;;;;6.65;2.22;;;;;;;;;;5054389;28;20049;-69
2021/12/08 08:31:59;;;;;;;5.85;1.67;;;;;;;;;;5062058;28;20057;-71
2021/12/08 08:34:27;;;;;;;8.45;2.03;;;;;;;;;;5063797;28;20049;-71
2021/12/08 08:36:54;;;;;;;9.85;2.70;;;;;;;;;;5068860;28;20049;-70
2021/12/08 08:39:25;;;;;;;5.55;2.15;;;;;;;;;;5058495;28;20057;-70
2021/12/08 08:41:59;;;;;;;7.43;2.15;;;;;;;;;;5066822;28;20057;-71
2021/12/08 08:44:39;;;;;;;9.73;2.30;;;;;;;;;;5066307;28;20056;-69
2021/12/08 08:47:05;;;;;;;;;;;;;;;;;;5064894;28;20140;-70
2021/12/08 08:49:32;;;;;;;6.28;2.00;;;;;;;;;;5064801;28;46631;-70
2021/12/08 08:52:11;;;;;;;6.85;1.58;;;;;;;;;;5055048;28;20080;-70
2021/12/08 08:54:44;;;;;;;7.10;2.22;;;;;;;;;;5059413;28;20764;-69
2021/12/08 08:57:13;;;;;;;7.00;1.60;;;;;;;;;;5060771;28;20049;-69
2021/12/08 08:59:45;;;;;;;8.20;2.28;;;;;;;;;;5061644;28;20057;-70
2021/12/08 09:02:13;;;;;;;6.53;1.88;;;;;;;;;;5063181;28;20067;-70
2021/12/08 09:04:42;;;;;;;10.20;2.20;;;;;;;;;;5055278;28;20065;-69
2021/12/08 09:07:14;;;;;;;5.05;2.50;;;;;;;;;;5053932;28;20060;-69
2021/12/08 09:09:42;;;;;;;5.90;1.70;;;;;;;;;;5069750;28;20053;-71
2021/12/08 09:12:17;;;;;;;15.35;2.40;;;;;;;;;;5070674;28;20049;-70
2021/12/08 09:14:49;;;;;;;9.97;3.33;;;;;;;;;;5070822;28;20476;-70
2021/12/08 09:17:18;;;;;;;9.25;2.70;;;;;;;;;;5060553;28;20049;-70
2021/12/08 09:19:50;;;;;;;7.18;1.88;;;;;;;;;;5056310;28;20053;-70
2021/12/08 09:22:28;;;;;;;7.57;1.85;;;;;;;;;;5068092;28;20064;-71
2021/12/08 09:24:58;;;;;;;12.50;2.75;;;;;;;;;;5054054;28;20056;-70
2021/12/08 09:27:30;;;;;;;8.80;1.63;;;;;;;;;;5053387;28;20506;-69
2021/12/08 09:29:59;;;;;;;5.80;2.47;;;;;;;;;;5051528;28;20049;-70
2021/12/08 09:32:35;;;;;;;7.55;1.70;;;;;;;;;;5053910;28;20059;-70
2021/12/08 09:35:06;;;;;;;10.30;2.33;;;;;;;;;;5054415;28;20108;-72
2021/12/08 09:37:36;;;;;;;4.20;1.25;;;;;;;;;;5061879;28;20140;-70
2021/12/08 09:40:22;;;;;;;7.53;1.92;;;;;;;;;;5071733;28;20540;-71
2021/12/08 09:42:48;;;;;;;;;;;;;;;;;;5073159;28;20063;-71
2021/12/08 09:45:16;;;;;;;;;;;;;;;;;;5062967;28;45620;-71
2021/12/08 09:47:42;;;;;;;4.50;1.83;;;;;;;;;;5052321;28;46386;-68
2021/12/08 09:50:10;;;;;;;3.90;1.58;;;;;;;;;;5052247;28;20049;-71
2021/12/08 09:52:36;;;;;;;7.45;1.90;;;;;;;;;;5055720;28;20053;-73
2021/12/08 09:55:04;;;;;;;7.45;1.80;;;;;;;;;;5050034;28;20060;-71
2021/12/08 09:57:31;;;;;;;6.15;1.50;;;;;;;;;;5056146;28;20053;-71
2021/12/08 09:59:57;;;;;;;6.78;2.67;;;;;;;;;;5059276;28;20049;-71
2021/12/08 10:02:29;;;;;;;2.70;1.48;;;;;;;;;;5054667;28;20136;-72
2021/12/08 10:05:00;;;;;;;8.63;2.53;;;;;;;;;;5068096;28;20060;-72
2021/12/08 10:07:27;;;;;;;6.05;1.80;;;;;;;;;;5051789;28;20053;-70
2021/12/08 10:09:53;;;;;;;7.72;2.10;;;;;;;;;;5056253;28;20100;-70
2021/12/08 10:12:20;;;;;;;9.80;2.15;;;;;;;;;;5071627;28;20087;-70
2021/12/08 10:14:47;;;;;;;5.78;1.67;;;;;;;;;;5069352;28;20053;-70
2021/12/08 10:17:14;;;;;;;10.73;1.88;;;;;;;;;;5051164;28;20060;-71
2021/12/08 10:19:41;;;;;;;6.88;1.60;;;;;;;;;;5051362;28;20160;-72
2021/12/08 10:22:21;;;;;;;11.52;1.67;;;;;;;;;;5053700;28;20049;-72
2021/12/08 10:25:06;;;;;;;7.28;2.00;;;;;;;;;;5050976;28;20059;-71
2021/12/08 10:27:52;;;;;;;9.17;2.50;;;;;;;;;;5051064;28;20088;-72
2021/12/08 10:30:23;;;;;;;4.13;2.03;;;;;;;;;;5040536;28;20080;-73
2021/12/08 10:32:50;;;;;;;6.85;1.77;;;;;;;;;;5051082;28;20136;-72
2021/12/08 10:35:39;;;;;;;5.30;1.98;;;;;;;;;;5052053;28;20057;-71
2021/12/08 10:38:07;;;;;;;9.57;1.80;;;;;;;;;;5068153;28;20045;-70
2021/12/08 10:40:33;;;;;;;10.80;2.13;;;;;;;;;;5071057;28;20497;-69
2021/12/08 10:43:11;;;;;;;7.47;2.17;;;;;;;;;;5071112;28;20067;-72
2021/12/08 10:45:37;;;;;;;8.50;1.88;;;;;;;;;;5050978;28;20056;-70
2021/12/08 10:48:05;;;;;;;8.75;2.42;;;;;;;;;;5051152;28;20434;-70
2021/12/08 10:56:08;;;;;;;6.95;2.25;;;;;;;;;;5054277;28;20053;-69
2021/12/08 10:58:35;;;;;;;8.23;1.85;;;;;;;;;;5056598;28;20050;-71
2021/12/08 11:01:16;;;;;;;3.30;1.48;;;;;;;;;;5058570;28;20061;-72
2021/12/08 11:03:43;;;;;;;7.43;1.40;;;;;;;;;;5043040;28;20057;-65
2021/12/08 11:06:15;;;;;;;7.78;1.90;;;;;;;;;;5057738;28;20149;-69
2021/12/08 11:08:44;;;;;;;5.13;2.13;;;;;;;;;;5053873;28;20057;-69
2021/12/08 11:11:20;;;;;;;5.60;1.95;;;;;;;;;;5053463;28;20116;-69
2021/12/08 11:13:47;;;;;;;5.10;1.77;;;;;;;;;;5058071;28;20468;-72
2021/12/08 11:16:15;;;;;;;5.22;1.70;;;;;;;;;;5056168;28;20185;-68
2021/12/08 11:18:43;;;;;;;4.25;1.90;;;;;;;;;;5053799;28;20077;-66
2021/12/08 11:21:16;;;;;;;5.22;1.92;;;;;;;;;;5056352;28;21072;-69
2021/12/08 11:24:03;;;;;;;3.20;1.48;;;;;;;;;;5056220;28;20053;-70
2021/12/08 11:26:36;;;;;;;6.15;2.13;;;;;;;;;;5059085;28;20159;-69
2021/12/08 11:29:02;;;;;;;5.75;2.03;;;;;;;;;;5061129;28;20160;-70
2021/12/08 11:31:31;;;;;;;5.05;1.88;;;;;;;;;;5055045;28;20076;-70
2021/12/08 11:34:04;;;;;;;8.48;2.47;;;;;;;;;;5033862;28;20052;-69
2021/12/08 11:36:35;;;;;;;3.72;1.52;;;;;;;;;;5047030;28;20054;-70
2021/12/08 11:39:11;;;;;;;5.32;1.80;;;;;;;;;;5053856;28;20061;-70
2021/12/08 11:41:48;;;;;;;5.32;2.33;;;;;;;;;;5048497;28;20441;-69
2021/12/08 11:44:16;;;;;;;8.27;2.10;;;;;;;;;;5046414;28;20077;-71
2021/12/08 11:47:09;;;;;;;6.25;2.03;;;;;;;;;;5036178;28;20461;-69
2021/12/08 11:49:40;;;;;;;2.88;1.67;;;;;;;;;;5048539;28;20063;-71
2021/12/08 11:52:10;;;;;;;4.93;2.25;;;;;;;;;;5050788;28;20141;-70
2021/12/08 11:54:46;;;;;;;7.68;2.67;;;;;;;;;;5051917;28;20045;-73
2021/12/08 11:57:21;;;;;;;3.78;1.95;;;;;;;;;;5038355;28;20107;-70
2021/12/08 11:59:56;;;;;;;5.63;2.08;;;;;;;;;;5052141;28;20054;-70
2021/12/08 12:02:25;;;;;;;2.67;1.80;;;;;;;;;;5051497;28;20058;-70
2021/12/08 12:04:52;;;;;;;5.10;2.15;;;;;;;;;;5053707;28;20058;-70
2021/12/08 12:07:20;;;;;;;4.97;2.08;;;;;;;;;;5051723;28;20424;-71
2021/12/08 12:09:47;;;;;;;4.32;1.77;;;;;;;;;;5056399;28;20551;-70
2021/12/08 12:12:14;;;;;;;2.67;1.88;;;;;;;;;;5033505;28;20060;-71
2021/12/08 12:14:40;;;;;;;6.13;1.95;;;;;;;;;;5033436;28;20604;-70
2021/12/08 12:17:06;;;;;;;2.20;1.67;;;;;;;;;;5041478;28;20200;-71
2021/12/08 12:19:35;;;;;;;3.03;1.85;;;;;;;;;;5056164;28;20085;-70
2021/12/08 12:22:10;;;;;;;4.10;1.85;;;;;;;;;;5055239;28;20045;-71
2021/12/08 12:24:52;;;;;;;4.72;2.38;;;;;;;;;;5050137;28;20569;-69
2021/12/08 12:27:38;;;;;;;4.22;1.60;;;;;;;;;;5058046;28;20053;-70
2021/12/08 12:30:07;;;;;;;3.08;2.15;;;;;;;;;;5054165;28;20148;-70
2021/12/08 12:32:50;;;;;;;4.00;2.00;;;;;;;;;;5053177;28;20081;-71
2021/12/08 12:35:19;;;;;;;6.38;2.05;;;;;;;;;;5054402;28;20053;-71
2021/12/08 12:37:48;;;;;;;4.15;1.75;;;;;;;;;;5058197;28;20140;-69
2021/12/08 12:40:17;;;;;;;5.85;1.73;;;;;;;;;;5072760;28;20056;-69
2021/12/08 12:42:45;;;;;;;2.88;1.80;;;;;;;;;;5061844;28;20089;-69
2021/12/08 12:45:14;;;;;;;6.82;1.70;;;;;;;;;;5064899;28;20084;-69
2021/12/08 12:47:41;;;;;;;2.03;1.58;;;;;;;;;;5052113;28;20136;-69
2021/12/08 12:50:09;;;;;;;4.20;1.77;;;;;;;;;;5051312;28;20064;-70
2021/12/08 12:52:40;;;;;;;1.73;1.63;;;;;;;;;;5052108;28;20058;-69
2021/12/08 12:55:08;;;;;;;3.53;2.17;;;;;;;;;;5052168;28;20616;-69
2021/12/08 12:57:54;;;;;;;3.25;1.75;;;;;;;;;;5064091;28;20057;-69
2021/12/08 13:00:25;;;;;;;3.95;1.92;;;;;;;;;;5065877;28;20128;-70
2021/12/08 13:02:52;;;;;;;5.13;1.63;;;;;;;;;;5052094;28;20112;-70
2021/12/08 13:05:18;;;;;;;8.50;2.42;;;;;;;;;;5054690;28;20203;-70
2021/12/08 13:07:59;;;;;;;4.63;1.83;;;;;;;;;;5072781;28;20059;-69
2021/12/08 13:10:37;;;;;;;4.30;1.98;;;;;;;;;;5058007;28;20948;-70
2021/12/08 13:13:10;;;;;;;4.78;2.20;;;;;;;;;;5054018;28;20144;-70
2021/12/08 13:15:37;;;;;;;6.15;1.90;;;;;;;;;;5058084;28;20088;-70
2021/12/08 13:18:14;;;;;;;4.15;2.00;;;;;;;;;;5053156;28;20049;-71
2021/12/08 13:20:47;;;;;;;3.17;1.90;;;;;;;;;;5064247;28;20057;-70
2021/12/08 13:23:15;;;;;;;9.95;2.42;;;;;;;;;;5053351;28;20049;-70
2021/12/08 13:28:37;;;;;;;6.35;2.05;;;;;;;;;;5056022;28;20136;-70
2021/12/08 13:31:07;;;;;;;7.00;2.28;;;;;;;;;;5051828;28;20076;-70
2021/12/08 13:33:42;;;;;;;6.10;2.30;;;;;;;;;;5051374;28;20057;-70
2021/12/08 13:36:34;;;;;;;5.22;2.35;;;;;;;;;;5051860;28;20338;-71
2021/12/08 13:39:15;;;;;;;4.60;2.22;;;;;;;;;;5049882;28;20056;-71
2021/12/08 13:41:51;;;;;;;5.03;2.08;;;;;;;;;;5047880;28;20054;-71
2021/12/08 13:44:35;;;;;;;5.85;2.00;;;;;;;;;;5041017;28;20053;-69
2021/12/08 13:47:04;;;;;;;8.90;3.58;;;;;;;;;;5051512;28;20524;-73
2021/12/08 13:49:34;;;;;;;4.43;2.05;;;;;;;;;;5051218;28;20061;-71
2021/12/08 13:52:13;;;;;;;5.72;1.92;;;;;;;;;;5055445;28;20412;-70
2021/12/08 13:54:44;;;;;;;4.05;1.75;;;;;;;;;;5070431;28;20059;-69
2021/12/08 13:57:32;;;;;;;4.53;1.73;;;;;;;;;;5072237;28;20057;-72
2021/12/08 14:00:08;;;;;;;5.00;2.47;;;;;;;;;;5070533;28;20053;-69
2021/12/08 14:02:37;;;;;;;5.65;1.80;;;;;;;;;;5034156;28;20164;-70
2021/12/08 14:05:19;;;;;;;3.85;2.08;;;;;;;;;;5051264;28;20180;-69
2021/12/08 14:07:50;;;;;;;5.15;1.73;;;;;;;;;;5037210;28;20091;-69
2021/12/08 14:10:19;;;;;;;9.55;2.10;;;;;;;;;;5050543;28;20151;-69
2021/12/08 14:12:47;;;;;;;5.00;2.13;;;;;;;;;;5068409;28;20053;-70
2021/12/08 14:15:33;;;;;;;7.55;2.20;;;;;;;;;;5062028;28;20057;-68
2021/12/08 14:18:13;;;;;;;4.72;1.80;;;;;;;;;;5050195;28;20053;-70
2021/12/08 14:20:40;;;;;;;6.65;2.75;;;;;;;;;;5052568;28;20053;-69
2021/12/08 14:23:06;;;;;;;5.10;2.97;;;;;;;;;;5047587;28;20490;-69
2021/12/08 14:25:38;;;;;;;5.80;2.72;;;;;;;;;;5051093;28;20505;-70
2021/12/08 14:28:23;;;;;;;6.45;3.03;;;;;;;;;;5050727;28;20091;-69
2021/12/08 14:30:50;;;;;;;5.75;2.70;;;;;;;;;;5051144;28;20054;-70
2021/12/08 14:33:23;;;;;;;3.22;2.53;;;;;;;;;;5048975;28;20107;-71
2021/12/08 14:36:03;;;;;;;7.93;2.85;;;;;;;;;;5052278;28;20053;-69
2021/12/08 14:38:29;;;;;;;3.13;2.63;;;;;;;;;;5050884;28;20059;-70
2021/12/08 14:40:56;;;;;;;10.65;3.22;;;;;;;;;;5057412;28;20048;-68
2021/12/08 14:43:33;;;;;;;6.70;3.08;;;;;;;;;;5068974;28;20530;-67
2021/12/08 14:46:16;;;;;;;8.60;3.17;;;;;;;;;;5063805;28;20058;-68
2021/12/08 14:48:56;;;;;;;3.88;2.92;;;;;;;;;;5059111;28;20144;-70
2021/12/08 14:51:24;;;;;;;3.60;2.92;;;;;;;;;;5052081;28;20063;-68
2021/12/08 14:53:50;;;;;;;6.15;3.38;;;;;;;;;;5050973;28;20050;-70
2021/12/08 14:56:18;;;;;;;7.00;3.17;;;;;;;;;;5059753;28;20053;-69
2021/12/08 14:58:44;;;;;;;8.13;2.90;;;;;;;;;;5072298;28;20144;-69
2021/12/08 15:01:12;;;;;;;8.68;3.45;;;;;;;;;;5053283;28;20129;-70
2021/12/08 15:03:40;;;;;;;9.63;3.55;;;;;;;;;;5041572;28;20484;-70
2021/12/08 15:06:07;;;;;;;4.32;2.10;;;;;;;;;;5050568;28;20055;-69
2021/12/08 15:08:40;;;;;;;8.90;2.95;;;;;;;;;;5050237;28;20089;-70
2021/12/08 15:11:07;;;;;;;9.70;2.53;;;;;;;;;;5051669;28;20064;-71
2021/12/08 15:13:33;;;;;;;5.68;2.30;;;;;;;;;;5050652;28;20506;-69
2021/12/08 15:16:03;;;;;;;6.18;2.03;;;;;;;;;;5050210;28;20112;-69
2021/12/08 15:18:29;;;;;;;8.68;2.78;;;;;;;;;;5044613;28;20054;-69
2021/12/08 15:21:09;;;;;;;4.97;2.17;;;;;;;;;;5044257;28;20417;-68
2021/12/08 15:23:43;;;;;;;4.47;1.75;;;;;;;;;;5044353;28;20137;-68
2021/12/08 15:26:11;;;;;;;7.25;2.30;;;;;;;;;;5043930;28;20069;-68
2021/12/08 15:28:39;;;;;;;4.75;1.80;;;;;;;;;;5050024;28;20064;-69
2021/12/08 15:31:06;;;;;;;4.60;2.25;;;;;;;;;;5057216;28;20476;-68
2021/12/08 15:33:34;;;;;;;4.55;2.30;;;;;;;;;;5051348;28;20058;-68
2021/12/08 15:36:06;;;;;;;2.80;1.85;;;;;;;;;;5050211;28;20132;-68
2021/12/08 15:38:32;;;;;;;4.45;2.17;;;;;;;;;;5047746;28;20054;-69
2021/12/08 15:40:59;;;;;;;7.47;1.92;;;;;;;;;;5066946;28;20061;-66
2021/12/08 15:43:25;;;;;;;3.45;1.90;;;;;;;;;;5049178;28;20064;-68
2021/12/08 15:45:53;;;;;;;7.90;2.17;;;;;;;;;;5050484;28;20058;-68
2021/12/08 15:48:24;;;;;;;5.57;2.05;;;;;;;;;;5048656;28;20077;-69